Time;durP1;ratioP1;P1;durP2;ratioP2;P2;SDS_P1;SDS_P2;PMS_P1;PMS_P2;Temp;Humidity;BMP_temperature;BMP_pressure;BME280_temperature;BME280_humidity;BME280_pressure;Samples;Min_cycle;Max_cycle;Signal;HPM_P1;HPM_P2
2022/01/29 00:00:31;;;;;;;0.40;0.40;;;;;;;;;;1880432;76;26205;-57
2022/01/29 00:03:00;;;;;;;0.30;0.30;;;;;;;;;;1877227;75;26635;-57
2022/01/29 00:05:28;;;;;;;0.35;0.35;;;;;;;;;;1879748;76;26275;-58
2022/01/29 00:07:55;;;;;;;0.30;0.30;;;;;;;;;;1866133;76;26320;-58
2022/01/29 00:10:22;;;;;;;0.40;0.40;;;;;;;;;;1875394;76;26207;-56
2022/01/29 00:12:49;;;;;;;1.35;0.40;;;;;;;;;;1870306;76;27456;-58
2022/01/29 00:15:17;;;;;;;0.30;0.30;;;;;;;;;;1869124;76;26305;-57
2022/01/29 00:17:44;;;;;;;0.40;0.40;;;;;;;;;;1859892;76;26264;-58
2022/01/29 00:20:12;;;;;;;0.72;0.30;;;;;;;;;;1867902;76;26265;-58
2022/01/29 00:22:40;;;;;;;0.37;0.37;;;;;;;;;;1866187;76;26234;-57
2022/01/29 00:25:09;;;;;;;0.23;0.23;;;;;;;;;;1872347;76;26269;-58
2022/01/29 00:27:37;;;;;;;0.30;0.30;;;;;;;;;;1870235;76;27531;-57
2022/01/29 00:30:09;;;;;;;0.30;0.30;;;;;;;;;;1867794;76;26245;-55
2022/01/29 00:32:34;;;;;;;0.25;0.25;;;;;;;;;;1864944;76;26433;-56
2022/01/29 00:35:02;;;;;;;0.30;0.30;;;;;;;;;;1869248;76;26333;-56
2022/01/29 00:37:29;;;;;;;0.25;0.25;;;;;;;;;;1869607;76;25635;-57
2022/01/29 00:39:57;;;;;;;0.10;0.10;;;;;;;;;;1873896;76;26704;-55
2022/01/29 00:42:25;;;;;;;0.30;0.30;;;;;;;;;;1865287;76;26728;-56
2022/01/29 00:44:52;;;;;;;0.20;0.20;;;;;;;;;;1861944;76;25766;-56
2022/01/29 00:47:20;;;;;;;0.30;0.30;;;;;;;;;;1862146;76;26840;-58
2022/01/29 00:49:47;;;;;;;0.28;0.28;;;;;;;;;;1872303;76;26321;-55
2022/01/29 00:52:14;;;;;;;0.30;0.30;;;;;;;;;;1876436;76;26292;-58
2022/01/29 00:54:44;;;;;;;0.20;0.20;;;;;;;;;;1861849;76;26242;-55
2022/01/29 00:57:11;;;;;;;0.30;0.30;;;;;;;;;;1869181;76;26398;-56
2022/01/29 00:59:38;;;;;;;0.20;0.20;;;;;;;;;;1872351;76;26608;-58
2022/01/29 01:02:08;;;;;;;0.20;0.20;;;;;;;;;;1862805;76;26273;-55
2022/01/29 01:04:38;;;;;;;0.30;0.30;;;;;;;;;;1865977;76;26338;-55
2022/01/29 01:07:04;;;;;;;0.30;0.30;;;;;;;;;;1870865;76;26377;-55
2022/01/29 01:09:32;;;;;;;0.20;0.20;;;;;;;;;;1868671;76;26383;-55
2022/01/29 01:11:59;;;;;;;0.30;0.30;;;;;;;;;;1871146;76;26595;-55
2022/01/29 01:14:26;;;;;;;0.28;0.28;;;;;;;;;;1865274;75;26288;-54
2022/01/29 01:16:53;;;;;;;0.40;0.40;;;;;;;;;;1876672;76;26237;-55
2022/01/29 01:19:25;;;;;;;0.45;0.45;;;;;;;;;;1867746;76;26233;-56
2022/01/29 01:21:50;;;;;;;0.28;0.28;;;;;;;;;;1864801;76;26345;-57
2022/01/29 01:24:17;;;;;;;0.30;0.30;;;;;;;;;;1874299;76;26700;-57
2022/01/29 01:26:44;;;;;;;0.23;0.23;;;;;;;;;;1866068;76;26815;-55
2022/01/29 01:29:12;;;;;;;0.30;0.30;;;;;;;;;;1873278;76;26266;-58
2022/01/29 01:31:39;;;;;;;0.30;0.30;;;;;;;;;;1861722;75;26274;-56
2022/01/29 01:34:07;;;;;;;0.20;0.20;;;;;;;;;;1869958;76;27216;-58
2022/01/29 01:36:41;;;;;;;0.30;0.30;;;;;;;;;;1870665;76;26281;-57
2022/01/29 01:39:08;;;;;;;0.40;0.40;;;;;;;;;;1870613;76;26678;-58
2022/01/29 01:41:38;;;;;;;0.17;0.17;;;;;;;;;;1869175;76;26697;-56
2022/01/29 01:44:02;;;;;;;0.20;0.20;;;;;;;;;;1873809;75;26327;-56
2022/01/29 01:46:29;;;;;;;0.28;0.28;;;;;;;;;;1862989;76;26367;-59
2022/01/29 01:48:58;;;;;;;0.30;0.30;;;;;;;;;;1871999;75;26714;-57
2022/01/29 01:51:25;;;;;;;0.20;0.20;;;;;;;;;;1867134;75;26330;-57
2022/01/29 01:53:53;;;;;;;0.20;0.20;;;;;;;;;;1870278;76;26319;-59
2022/01/29 01:56:20;;;;;;;0.30;0.30;;;;;;;;;;1868697;76;26720;-58
2022/01/29 01:58:48;;;;;;;0.30;0.30;;;;;;;;;;1869991;76;26564;-58
2022/01/29 02:01:15;;;;;;;0.10;0.10;;;;;;;;;;1871003;75;26244;-58
2022/01/29 02:03:42;;;;;;;0.33;0.33;;;;;;;;;;1863884;76;26271;-58
2022/01/29 02:06:10;;;;;;;0.33;0.33;;;;;;;;;;1868760;75;26799;-57
2022/01/29 02:08:37;;;;;;;0.20;0.20;;;;;;;;;;1875545;75;26300;-58
2022/01/29 02:11:05;;;;;;;0.40;0.20;;;;;;;;;;1880943;76;26257;-54
2022/01/29 02:13:33;;;;;;;0.33;0.33;;;;;;;;;;1884405;76;26274;-57
2022/01/29 02:16:05;;;;;;;0.30;0.30;;;;;;;;;;1877543;75;26688;-57
2022/01/29 02:18:30;;;;;;;0.33;0.33;;;;;;;;;;1876012;76;26319;-57
2022/01/29 02:20:59;;;;;;;0.30;0.30;;;;;;;;;;1887393;76;26685;-59
2022/01/29 02:23:26;;;;;;;0.30;0.30;;;;;;;;;;1888466;75;26256;-56
2022/01/29 02:25:54;;;;;;;0.20;0.20;;;;;;;;;;1874563;76;26255;-56
2022/01/29 02:28:23;;;;;;;0.30;0.30;;;;;;;;;;1864317;75;26633;-57
2022/01/29 02:30:57;;;;;;;0.20;0.20;;;;;;;;;;1887965;75;25637;-56
2022/01/29 02:33:21;;;;;;;0.30;0.30;;;;;;;;;;1871285;76;26401;-57
2022/01/29 02:35:49;;;;;;;0.35;0.35;;;;;;;;;;1883981;76;26323;-57
2022/01/29 02:38:18;;;;;;;0.20;0.20;;;;;;;;;;1882293;76;26241;-54
2022/01/29 02:40:49;;;;;;;0.23;0.23;;;;;;;;;;1865919;75;26345;-58
2022/01/29 02:43:16;;;;;;;0.68;0.30;;;;;;;;;;1880534;75;26324;-53
2022/01/29 02:45:45;;;;;;;0.30;0.30;;;;;;;;;;1857721;76;26582;-53
2022/01/29 02:48:12;;;;;;;0.30;0.30;;;;;;;;;;1885268;76;26778;-57
2022/01/29 02:50:40;;;;;;;0.20;0.20;;;;;;;;;;1871123;76;26264;-54
2022/01/29 02:53:08;;;;;;;0.20;0.20;;;;;;;;;;1885253;76;26651;-55
2022/01/29 02:55:35;;;;;;;1.55;0.35;;;;;;;;;;1881026;76;26253;-56
2022/01/29 02:58:03;;;;;;;0.10;0.10;;;;;;;;;;1887585;76;26583;-56
2022/01/29 03:00:30;;;;;;;0.25;0.25;;;;;;;;;;1883526;75;26204;-52
2022/01/29 03:02:58;;;;;;;0.13;0.13;;;;;;;;;;1887101;76;26252;-57
2022/01/29 03:05:25;;;;;;;0.30;0.30;;;;;;;;;;1872198;76;26241;-56
2022/01/29 03:07:52;;;;;;;0.20;0.20;;;;;;;;;;1881962;75;26735;-57
2022/01/29 03:10:22;;;;;;;0.30;0.30;;;;;;;;;;1877373;75;26750;-55
2022/01/29 03:12:49;;;;;;;0.10;0.10;;;;;;;;;;1876942;75;26344;-55
2022/01/29 03:15:16;;;;;;;0.15;0.15;;;;;;;;;;1867957;76;26737;-55
2022/01/29 03:17:43;;;;;;;0.35;0.35;;;;;;;;;;1869936;75;26650;-57
2022/01/29 03:20:11;;;;;;;0.23;0.23;;;;;;;;;;1872925;74;26272;-56
2022/01/29 03:22:39;;;;;;;0.35;0.35;;;;;;;;;;1870983;75;26306;-53
2022/01/29 03:25:06;;;;;;;0.20;0.20;;;;;;;;;;1878253;76;26315;-55
2022/01/29 03:27:34;;;;;;;0.30;0.30;;;;;;;;;;1853776;76;26705;-55
2022/01/29 03:30:03;;;;;;;0.30;0.30;;;;;;;;;;1871124;75;26260;-56
2022/01/29 03:32:30;;;;;;;0.30;0.30;;;;;;;;;;1879618;76;26783;-55
2022/01/29 03:34:58;;;;;;;0.30;0.30;;;;;;;;;;1860006;76;26230;-54
2022/01/29 03:37:25;;;;;;;0.70;0.30;;;;;;;;;;1887686;75;26641;-53
2022/01/29 03:39:57;;;;;;;0.40;0.40;;;;;;;;;;1876412;75;26780;-58
2022/01/29 03:42:22;;;;;;;0.23;0.13;;;;;;;;;;1862933;76;26273;-54
2022/01/29 03:44:50;;;;;;;0.28;0.28;;;;;;;;;;1857618;76;26303;-56
2022/01/29 03:47:17;;;;;;;0.23;0.23;;;;;;;;;;1860003;74;26276;-55
2022/01/29 03:49:45;;;;;;;0.50;0.50;;;;;;;;;;1860825;76;26741;-56
2022/01/29 03:52:12;;;;;;;0.20;0.20;;;;;;;;;;1869896;75;26288;-57
2022/01/29 03:54:39;;;;;;;0.40;0.40;;;;;;;;;;1883019;75;26717;-57
2022/01/29 03:57:06;;;;;;;0.20;0.20;;;;;;;;;;1848842;76;26669;-56
2022/01/29 03:59:34;;;;;;;0.20;0.20;;;;;;;;;;1878684;76;26709;-55
2022/01/29 04:02:01;;;;;;;0.10;0.10;;;;;;;;;;1862299;76;26680;-57
2022/01/29 04:04:29;;;;;;;0.30;0.30;;;;;;;;;;1868851;76;26339;-55
2022/01/29 04:07:01;;;;;;;0.20;0.20;;;;;;;;;;1877723;75;26277;-57
2022/01/29 04:09:25;;;;;;;0.28;0.28;;;;;;;;;;1847362;75;26343;-56
2022/01/29 04:11:52;;;;;;;0.40;0.40;;;;;;;;;;1873226;75;26323;-57
2022/01/29 04:14:20;;;;;;;0.20;0.20;;;;;;;;;;1869534;76;26351;-57
2022/01/29 04:16:48;;;;;;;0.42;0.42;;;;;;;;;;1865633;76;26350;-57
2022/01/29 04:19:15;;;;;;;0.33;0.33;;;;;;;;;;1878834;76;26776;-56
2022/01/29 04:21:42;;;;;;;0.40;0.40;;;;;;;;;;1876590;75;26315;-57
2022/01/29 04:24:09;;;;;;;0.10;0.10;;;;;;;;;;1870722;74;26297;-54
2022/01/29 04:26:37;;;;;;;0.30;0.30;;;;;;;;;;1873030;76;26245;-57
2022/01/29 04:29:08;;;;;;;0.20;0.20;;;;;;;;;;1872679;76;26354;-56
2022/01/29 04:31:47;;;;;;;0.33;0.33;;;;;;;;;;1873765;76;26342;-55
2022/01/29 04:34:07;;;;;;;0.30;0.30;;;;;;;;;;1875891;76;26806;-55
2022/01/29 04:36:34;;;;;;;0.20;0.20;;;;;;;;;;1863409;76;26751;-57
2022/01/29 04:39:01;;;;;;;0.25;0.25;;;;;;;;;;1870765;75;26253;-55
2022/01/29 04:41:28;;;;;;;0.30;0.30;;;;;;;;;;1864897;76;26319;-55
2022/01/29 04:43:56;;;;;;;0.40;0.30;;;;;;;;;;1863862;76;26257;-55
2022/01/29 04:46:23;;;;;;;0.40;0.40;;;;;;;;;;1868345;76;26258;-53
2022/01/29 04:48:50;;;;;;;0.10;0.10;;;;;;;;;;1879165;76;26249;-55
2022/01/29 04:51:17;;;;;;;0.28;0.25;;;;;;;;;;1863810;76;26269;-55
2022/01/29 04:53:45;;;;;;;0.23;0.23;;;;;;;;;;1865336;74;26313;-55
2022/01/29 04:56:12;;;;;;;0.30;0.30;;;;;;;;;;1864220;76;26359;-54
2022/01/29 04:58:39;;;;;;;0.15;0.15;;;;;;;;;;1866661;74;26262;-56
2022/01/29 05:01:07;;;;;;;0.10;0.10;;;;;;;;;;1874328;76;26249;-56
2022/01/29 05:03:34;;;;;;;0.20;0.20;;;;;;;;;;1874184;76;26739;-56
2022/01/29 05:06:09;;;;;;;0.28;0.28;;;;;;;;;;1874526;76;27152;-54
2022/01/29 05:08:30;;;;;;;0.40;0.40;;;;;;;;;;1869350;76;26348;-57
2022/01/29 05:10:58;;;;;;;0.23;0.23;;;;;;;;;;1881840;75;26304;-57
2022/01/29 05:13:28;;;;;;;0.25;0.20;;;;;;;;;;1869770;75;26326;-57
2022/01/29 05:26:57;;;;;;;0.28;0.28;;;;;;;;;;1891689;75;26285;-57
2022/01/29 05:29:28;;;;;;;0.35;0.35;;;;;;;;;;1870972;75;26797;-55
2022/01/29 05:31:53;;;;;;;0.20;0.20;;;;;;;;;;1875406;75;26304;-57
2022/01/29 05:34:21;;;;;;;0.40;0.35;;;;;;;;;;1877150;75;26338;-55
2022/01/29 05:36:50;;;;;;;0.20;0.20;;;;;;;;;;1891638;75;26611;-57
2022/01/29 05:39:17;;;;;;;0.20;0.20;;;;;;;;;;1884784;75;26283;-55
2022/01/29 05:41:44;;;;;;;0.20;0.20;;;;;;;;;;1878126;75;26201;-58
2022/01/29 05:44:12;;;;;;;0.30;0.30;;;;;;;;;;1875295;75;26602;-56
2022/01/29 05:46:39;;;;;;;0.20;0.20;;;;;;;;;;1890139;75;26323;-58
2022/01/29 05:49:06;;;;;;;0.30;0.30;;;;;;;;;;1882841;74;26867;-57
2022/01/29 05:51:34;;;;;;;0.40;0.40;;;;;;;;;;1877183;75;26316;-57
2022/01/29 05:54:02;;;;;;;0.30;0.30;;;;;;;;;;1885753;75;26261;-55
2022/01/29 05:56:29;;;;;;;0.30;0.30;;;;;;;;;;1880293;75;26267;-56
2022/01/29 05:58:57;;;;;;;0.50;0.45;;;;;;;;;;1885738;75;26280;-55
2022/01/29 06:01:24;;;;;;;0.85;0.20;;;;;;;;;;1883325;75;26429;-57
2022/01/29 06:03:52;;;;;;;0.25;0.25;;;;;;;;;;1886064;75;26249;-53
2022/01/29 06:06:19;;;;;;;0.25;0.25;;;;;;;;;;1885138;75;26259;-56
2022/01/29 06:08:47;;;;;;;0.40;0.40;;;;;;;;;;1881691;75;26340;-57
2022/01/29 06:11:14;;;;;;;0.30;0.20;;;;;;;;;;1873018;75;26383;-58
2022/01/29 06:13:41;;;;;;;0.33;0.33;;;;;;;;;;1878706;75;26285;-58
2022/01/29 06:16:09;;;;;;;0.33;0.30;;;;;;;;;;1874743;75;26322;-57
2022/01/29 06:18:37;;;;;;;0.40;0.37;;;;;;;;;;1875849;76;26329;-57
2022/01/29 06:21:07;;;;;;;0.20;0.20;;;;;;;;;;1871663;76;26744;-56
2022/01/29 06:23:36;;;;;;;0.20;0.20;;;;;;;;;;1876494;76;26330;-56
2022/01/29 06:26:04;;;;;;;0.20;0.20;;;;;;;;;;1879657;76;26920;-59
2022/01/29 06:28:31;;;;;;;0.37;0.37;;;;;;;;;;1875313;76;26276;-55
2022/01/29 06:30:59;;;;;;;0.37;0.37;;;;;;;;;;1870220;76;26297;-57
2022/01/29 06:33:26;;;;;;;0.10;0.10;;;;;;;;;;1879572;76;26651;-55
2022/01/29 06:35:54;;;;;;;0.37;0.30;;;;;;;;;;1876082;76;26341;-56
2022/01/29 06:38:22;;;;;;;0.23;0.23;;;;;;;;;;1877115;76;26836;-55
2022/01/29 06:40:49;;;;;;;0.17;0.17;;;;;;;;;;1875670;76;26388;-58
2022/01/29 06:43:17;;;;;;;1.17;0.23;;;;;;;;;;1878732;76;26249;-56
2022/01/29 06:45:45;;;;;;;0.30;0.30;;;;;;;;;;1868708;76;26613;-58
2022/01/29 06:48:13;;;;;;;0.37;0.37;;;;;;;;;;1867226;76;26321;-54
2022/01/29 06:50:40;;;;;;;0.55;0.40;;;;;;;;;;1876948;76;26261;-57
2022/01/29 06:53:08;;;;;;;0.28;0.28;;;;;;;;;;1881267;76;26268;-56
2022/01/29 06:55:35;;;;;;;0.30;0.30;;;;;;;;;;1877298;76;26308;-57
2022/01/29 06:58:03;;;;;;;0.15;0.15;;;;;;;;;;1880835;76;26323;-53
2022/01/29 07:00:30;;;;;;;0.28;0.20;;;;;;;;;;1872297;76;26933;-56
2022/01/29 07:02:57;;;;;;;0.30;0.30;;;;;;;;;;1878943;76;26325;-58
2022/01/29 07:05:25;;;;;;;0.25;0.25;;;;;;;;;;1878054;75;26325;-56
2022/01/29 07:07:52;;;;;;;0.20;0.20;;;;;;;;;;1875823;76;26292;-58
2022/01/29 07:10:19;;;;;;;0.10;0.10;;;;;;;;;;1874805;76;26628;-57
2022/01/29 07:12:46;;;;;;;0.20;0.20;;;;;;;;;;1878884;76;26308;-57
2022/01/29 07:15:14;;;;;;;0.55;0.35;;;;;;;;;;1873309;76;26286;-57
2022/01/29 07:17:41;;;;;;;0.93;0.30;;;;;;;;;;1875371;76;26271;-57
2022/01/29 07:20:09;;;;;;;0.20;0.20;;;;;;;;;;1877494;76;26315;-59
2022/01/29 07:22:38;;;;;;;2.50;0.28;;;;;;;;;;1884315;76;26649;-58
2022/01/29 07:25:06;;;;;;;0.42;0.40;;;;;;;;;;1886821;76;26237;-52
2022/01/29 07:27:33;;;;;;;0.75;0.30;;;;;;;;;;1873939;76;26653;-55
2022/01/29 07:30:00;;;;;;;0.30;0.30;;;;;;;;;;1872966;76;26289;-53
2022/01/29 07:32:28;;;;;;;0.30;0.30;;;;;;;;;;1877248;76;26259;-51
2022/01/29 07:34:55;;;;;;;0.30;0.30;;;;;;;;;;1879303;76;26245;-59
2022/01/29 07:37:22;;;;;;;0.33;0.30;;;;;;;;;;1873664;76;27060;-55
2022/01/29 07:39:50;;;;;;;1.75;0.30;;;;;;;;;;1872313;76;26350;-54
2022/01/29 07:42:17;;;;;;;0.15;0.15;;;;;;;;;;1873202;76;26886;-58
2022/01/29 07:44:44;;;;;;;0.20;0.20;;;;;;;;;;1875793;76;26890;-55
2022/01/29 07:47:11;;;;;;;0.28;0.28;;;;;;;;;;1874404;76;26271;-49
2022/01/29 07:49:39;;;;;;;0.40;0.28;;;;;;;;;;1878057;76;26365;-60
2022/01/29 07:52:07;;;;;;;0.20;0.20;;;;;;;;;;1879053;76;26249;-58
2022/01/29 07:54:34;;;;;;;0.30;0.20;;;;;;;;;;1885780;76;26657;-55
2022/01/29 07:57:01;;;;;;;0.30;0.30;;;;;;;;;;1877433;76;26238;-53
2022/01/29 07:59:29;;;;;;;0.28;0.28;;;;;;;;;;1881445;76;26264;-51
2022/01/29 08:01:56;;;;;;;0.20;0.20;;;;;;;;;;1874317;76;26320;-57
2022/01/29 08:04:24;;;;;;;0.30;0.30;;;;;;;;;;1881172;76;26718;-55
2022/01/29 08:06:52;;;;;;;2.52;0.50;;;;;;;;;;1875073;76;26295;-56
2022/01/29 08:09:19;;;;;;;1.45;0.40;;;;;;;;;;1879583;75;27323;-57
2022/01/29 08:11:46;;;;;;;1.12;0.50;;;;;;;;;;1877387;75;26303;-54
2022/01/29 08:14:14;;;;;;;1.15;0.68;;;;;;;;;;1869732;75;26433;-53
2022/01/29 08:16:41;;;;;;;1.30;0.50;;;;;;;;;;1869980;76;26372;-56
2022/01/29 08:19:09;;;;;;;0.50;0.40;;;;;;;;;;1872003;75;26790;-46
2022/01/29 08:21:38;;;;;;;1.40;0.60;;;;;;;;;;1866690;76;26827;-52
2022/01/29 08:24:08;;;;;;;9.38;1.10;;;;;;;;;;1860386;76;26344;-56
2022/01/29 08:26:35;;;;;;;3.30;0.50;;;;;;;;;;1869224;76;26610;-65
2022/01/29 08:29:03;;;;;;;0.40;0.40;;;;;;;;;;1876561;75;26257;-56
2022/01/29 08:31:30;;;;;;;0.65;0.42;;;;;;;;;;1873991;76;26647;-52
2022/01/29 08:33:57;;;;;;;1.92;0.60;;;;;;;;;;1868125;76;26675;-54
2022/01/29 08:36:25;;;;;;;0.98;0.42;;;;;;;;;;1873064;76;26280;-55
2022/01/29 08:38:52;;;;;;;1.57;0.40;;;;;;;;;;1870459;76;26780;-60
2022/01/29 08:41:19;;;;;;;1.20;0.47;;;;;;;;;;1861449;76;26602;-50
2022/01/29 08:43:47;;;;;;;0.53;0.40;;;;;;;;;;1868949;76;26324;-50
2022/01/29 08:46:14;;;;;;;0.72;0.50;;;;;;;;;;1871115;75;26261;-49
2022/01/29 08:48:42;;;;;;;1.27;0.70;;;;;;;;;;1866109;76;26264;-54
2022/01/29 08:51:09;;;;;;;1.67;0.50;;;;;;;;;;1869679;75;26280;-60
2022/01/29 08:53:37;;;;;;;1.62;0.60;;;;;;;;;;1867674;76;26607;-54
2022/01/29 08:56:05;;;;;;;0.53;0.53;;;;;;;;;;1867538;76;27305;-59
2022/01/29 08:58:32;;;;;;;0.47;0.47;;;;;;;;;;1863332;75;26708;-46
2022/01/29 09:01:00;;;;;;;2.67;0.65;;;;;;;;;;1864669;76;26766;-56
2022/01/29 09:03:27;;;;;;;0.95;0.50;;;;;;;;;;1865648;76;26343;-49
2022/01/29 09:05:55;;;;;;;0.98;0.80;;;;;;;;;;1869780;75;26261;-53
2022/01/29 09:08:22;;;;;;;1.05;1.05;;;;;;;;;;1871308;76;26326;-51
2022/01/29 09:10:50;;;;;;;1.65;1.12;;;;;;;;;;1869285;76;26657;-52
2022/01/29 09:13:17;;;;;;;1.30;1.20;;;;;;;;;;1882188;76;26429;-54
2022/01/29 09:15:44;;;;;;;2.60;1.50;;;;;;;;;;1882618;76;26323;-56
2022/01/29 09:18:12;;;;;;;2.65;1.52;;;;;;;;;;1878681;76;26303;-47
2022/01/29 09:20:39;;;;;;;2.10;1.57;;;;;;;;;;1878169;76;26273;-53
2022/01/29 09:23:08;;;;;;;2.67;1.90;;;;;;;;;;1876937;76;26586;-56
2022/01/29 09:25:39;;;;;;;2.75;2.05;;;;;;;;;;1881566;76;26249;-62
2022/01/29 09:28:07;;;;;;;2.95;2.30;;;;;;;;;;1882295;75;26792;-50
2022/01/29 09:30:35;;;;;;;3.12;2.58;;;;;;;;;;1868406;76;26218;-50
2022/01/29 09:33:03;;;;;;;7.28;2.75;;;;;;;;;;1886238;76;26733;-48
2022/01/29 09:35:31;;;;;;;3.22;2.77;;;;;;;;;;1873439;76;26374;-49
2022/01/29 09:37:58;;;;;;;3.20;2.50;;;;;;;;;;1871572;76;26566;-52
2022/01/29 09:40:26;;;;;;;3.12;2.52;;;;;;;;;;1869575;76;26276;-50
2022/01/29 09:42:53;;;;;;;4.08;2.92;;;;;;;;;;1870655;76;26213;-50
2022/01/29 09:45:23;;;;;;;4.60;2.75;;;;;;;;;;1884304;76;26210;-45
2022/01/29 09:47:51;;;;;;;4.70;2.58;;;;;;;;;;1883921;76;26222;-50
2022/01/29 09:50:19;;;;;;;3.50;2.67;;;;;;;;;;1879629;76;26277;-47
2022/01/29 09:52:46;;;;;;;3.95;2.40;;;;;;;;;;1886164;76;26276;-56
2022/01/29 09:55:13;;;;;;;3.80;2.42;;;;;;;;;;1874736;76;26590;-50
2022/01/29 09:57:41;;;;;;;3.30;2.50;;;;;;;;;;1877313;74;26209;-48
2022/01/29 10:00:10;;;;;;;4.62;2.37;;;;;;;;;;1878648;76;27190;-53
2022/01/29 10:02:38;;;;;;;2.42;2.30;;;;;;;;;;1881500;75;26277;-47
2022/01/29 10:05:06;;;;;;;2.80;2.20;;;;;;;;;;1879863;75;27419;-50
2022/01/29 10:07:33;;;;;;;2.60;2.00;;;;;;;;;;1886724;75;26346;-53
2022/01/29 10:10:03;;;;;;;2.27;2.00;;;;;;;;;;1873462;75;26212;-47
2022/01/29 10:12:31;;;;;;;2.20;1.98;;;;;;;;;;1880682;76;26854;-45
2022/01/29 10:15:03;;;;;;;2.10;1.85;;;;;;;;;;1869945;75;26737;-50
2022/01/29 10:17:40;;;;;;;7.45;2.10;;;;;;;;;;1879295;75;26337;-45
2022/01/29 10:20:16;;;;;;;1.70;1.60;;;;;;;;;;1889074;76;26714;-48
2022/01/29 10:22:47;;;;;;;1.87;1.77;;;;;;;;;;1877342;76;26307;-51
2022/01/29 10:25:16;;;;;;;3.30;1.52;;;;;;;;;;1881561;76;26700;-50
2022/01/29 10:28:01;;;;;;;2.75;1.50;;;;;;;;;;1876366;75;26778;-48
2022/01/29 10:30:30;;;;;;;2.00;1.42;;;;;;;;;;1875145;76;26531;-45
2022/01/29 10:33:17;;;;;;;1.90;1.37;;;;;;;;;;1876473;76;26380;-50
2022/01/29 10:35:45;;;;;;;2.47;1.47;;;;;;;;;;1879235;75;26662;-47
2022/01/29 10:38:12;;;;;;;1.50;1.40;;;;;;;;;;1875971;76;25704;-51
2022/01/29 10:40:40;;;;;;;1.82;1.22;;;;;;;;;;1878133;76;26390;-46
2022/01/29 10:43:07;;;;;;;2.12;1.27;;;;;;;;;;1880067;76;26388;-50
2022/01/29 10:45:35;;;;;;;3.65;1.30;;;;;;;;;;1849328;76;26359;-47
2022/01/29 10:48:05;;;;;;;1.27;1.20;;;;;;;;;;1874394;75;26780;-51
2022/01/29 10:50:33;;;;;;;1.00;1.00;;;;;;;;;;1868205;76;26292;-53
2022/01/29 10:53:19;;;;;;;2.08;1.20;;;;;;;;;;1876501;75;26268;-48
2022/01/29 10:56:03;;;;;;;2.10;1.00;;;;;;;;;;1883777;75;26802;-53
2022/01/29 10:58:31;;;;;;;5.12;1.05;;;;;;;;;;1877838;76;26787;-49
2022/01/29 11:01:12;;;;;;;0.90;0.90;;;;;;;;;;1879941;76;26331;-52
2022/01/29 11:03:39;;;;;;;1.12;0.90;;;;;;;;;;1881871;75;26297;-49
2022/01/29 11:06:11;;;;;;;1.62;1.07;;;;;;;;;;1872357;76;26391;-49
2022/01/29 11:08:37;;;;;;;1.07;0.95;;;;;;;;;;1876084;76;26832;-52
2022/01/29 11:11:05;;;;;;;0.90;0.85;;;;;;;;;;1876210;76;26834;-49
2022/01/29 11:13:34;;;;;;;1.47;1.12;;;;;;;;;;1874640;76;26380;-49
2022/01/29 11:16:02;;;;;;;0.72;0.72;;;;;;;;;;1872901;76;26261;-51
2022/01/29 11:18:32;;;;;;;0.82;0.82;;;;;;;;;;1867422;76;27117;-47
2022/01/29 11:21:00;;;;;;;2.02;1.22;;;;;;;;;;1864768;75;26883;-54
2022/01/29 11:23:29;;;;;;;0.70;0.70;;;;;;;;;;1870107;76;26806;-49
2022/01/29 11:25:58;;;;;;;0.70;0.70;;;;;;;;;;1869650;76;26812;-46
2022/01/29 11:28:27;;;;;;;0.90;0.90;;;;;;;;;;1871866;76;26437;-47
2022/01/29 11:31:14;;;;;;;1.02;0.70;;;;;;;;;;1869479;76;26378;-50
2022/01/29 11:34:02;;;;;;;0.70;0.70;;;;;;;;;;1872379;76;26718;-46
2022/01/29 11:36:49;;;;;;;0.70;0.70;;;;;;;;;;1863119;76;26871;-51
2022/01/29 11:39:20;;;;;;;0.50;0.50;;;;;;;;;;1862309;76;26364;-47
2022/01/29 11:41:49;;;;;;;0.60;0.60;;;;;;;;;;1872004;76;26824;-56
2022/01/29 11:44:26;;;;;;;0.53;0.53;;;;;;;;;;1861804;76;26761;-47
2022/01/29 11:46:53;;;;;;;1.47;0.50;;;;;;;;;;1868383;76;26303;-55
2022/01/29 11:49:24;;;;;;;0.60;0.60;;;;;;;;;;1874379;76;26875;-56
2022/01/29 11:51:52;;;;;;;0.60;0.60;;;;;;;;;;1867783;76;26367;-50
2022/01/29 11:54:21;;;;;;;0.65;0.65;;;;;;;;;;1868083;76;26319;-46
2022/01/29 11:56:49;;;;;;;1.40;1.00;;;;;;;;;;1867805;76;26269;-47
2022/01/29 11:59:24;;;;;;;0.90;0.90;;;;;;;;;;1854628;76;26724;-46
2022/01/29 12:01:52;;;;;;;0.88;0.88;;;;;;;;;;1866765;76;26296;-49
2022/01/29 12:04:20;;;;;;;0.98;0.98;;;;;;;;;;1878000;76;26296;-46
2022/01/29 12:07:01;;;;;;;1.20;1.20;;;;;;;;;;1876374;76;27355;-47
2022/01/29 12:09:33;;;;;;;1.10;1.10;;;;;;;;;;1886358;75;26336;-52
2022/01/29 12:12:14;;;;;;;1.40;1.30;;;;;;;;;;1883918;75;26348;-46
2022/01/29 12:14:42;;;;;;;1.12;1.12;;;;;;;;;;1898417;75;26377;-49
2022/01/29 12:17:10;;;;;;;1.17;1.17;;;;;;;;;;1875602;75;26324;-48
2022/01/29 12:19:44;;;;;;;1.17;1.17;;;;;;;;;;1883072;75;26658;-45
2022/01/29 12:22:15;;;;;;;1.10;1.10;;;;;;;;;;1860727;75;26335;-49
2022/01/29 12:24:44;;;;;;;1.57;1.47;;;;;;;;;;1892624;75;26788;-49
2022/01/29 12:27:12;;;;;;;1.50;1.40;;;;;;;;;;1857303;76;26693;-49
2022/01/29 12:29:40;;;;;;;1.40;1.32;;;;;;;;;;1869614;75;26289;-50
2022/01/29 12:32:08;;;;;;;1.55;1.50;;;;;;;;;;1863808;76;26367;-44
2022/01/29 12:34:35;;;;;;;1.50;1.40;;;;;;;;;;1864107;76;26634;-45
2022/01/29 12:37:13;;;;;;;1.60;1.50;;;;;;;;;;1863991;75;26276;-50
2022/01/29 12:39:42;;;;;;;1.45;1.45;;;;;;;;;;1874184;76;26318;-45
2022/01/29 12:44:43;;;;;;;1.75;1.65;;;;;;;;;;1872020;76;26670;-54
2022/01/29 12:47:12;;;;;;;1.57;1.50;;;;;;;;;;1877249;75;26816;-54
2022/01/29 12:49:40;;;;;;;1.67;1.57;;;;;;;;;;1864830;76;27206;-45
2022/01/29 12:52:10;;;;;;;1.20;1.20;;;;;;;;;;1860885;75;26283;-53
2022/01/29 12:54:37;;;;;;;1.42;1.42;;;;;;;;;;1865683;75;26645;-46
2022/01/29 12:57:05;;;;;;;1.40;1.30;;;;;;;;;;1871800;76;26305;-49
2022/01/29 12:59:36;;;;;;;1.60;1.37;;;;;;;;;;1867925;76;27222;-51
2022/01/29 13:02:04;;;;;;;1.45;1.40;;;;;;;;;;1870866;76;26316;-46
2022/01/29 13:04:31;;;;;;;1.20;1.20;;;;;;;;;;1873036;76;26285;-49
2022/01/29 13:07:00;;;;;;;1.20;1.20;;;;;;;;;;1871644;75;26343;-48
2022/01/29 13:09:34;;;;;;;1.27;1.20;;;;;;;;;;1866591;75;26260;-46
2022/01/29 13:12:00;;;;;;;1.10;1.10;;;;;;;;;;1870021;76;26334;-48
2022/01/29 13:14:28;;;;;;;1.22;1.22;;;;;;;;;;1863130;75;26344;-43
2022/01/29 13:16:56;;;;;;;1.10;1.10;;;;;;;;;;1865424;76;26793;-54
2022/01/29 13:19:25;;;;;;;1.15;1.15;;;;;;;;;;1862490;76;26249;-45
2022/01/29 13:21:54;;;;;;;1.10;1.10;;;;;;;;;;1863424;75;26360;-53
2022/01/29 13:24:29;;;;;;;1.10;1.10;;;;;;;;;;1865816;76;26318;-46
2022/01/29 13:27:02;;;;;;;1.10;1.10;;;;;;;;;;1864385;76;26514;-49
2022/01/29 13:29:34;;;;;;;0.95;0.95;;;;;;;;;;1865376;76;26367;-48
2022/01/29 13:32:02;;;;;;;1.00;1.00;;;;;;;;;;1862816;76;26335;-47
2022/01/29 13:34:30;;;;;;;0.98;0.98;;;;;;;;;;1867556;76;26265;-48
2022/01/29 13:36:58;;;;;;;0.93;0.93;;;;;;;;;;1868217;76;26317;-50
2022/01/29 13:39:26;;;;;;;0.90;0.90;;;;;;;;;;1876915;76;26323;-48
2022/01/29 13:42:10;;;;;;;0.90;0.90;;;;;;;;;;1872817;76;26658;-49
2022/01/29 13:44:38;;;;;;;0.75;0.75;;;;;;;;;;1869421;76;26269;-50
2022/01/29 13:47:06;;;;;;;0.75;0.75;;;;;;;;;;1864713;76;26265;-49
2022/01/29 13:49:34;;;;;;;0.70;0.70;;;;;;;;;;1862550;76;26560;-49
2022/01/29 13:52:02;;;;;;;0.80;0.80;;;;;;;;;;1871047;76;26261;-51
2022/01/29 13:54:30;;;;;;;0.82;0.82;;;;;;;;;;1864039;76;26273;-57
2022/01/29 13:56:59;;;;;;;1.30;1.15;;;;;;;;;;1868165;76;26801;-55
2022/01/29 13:59:26;;;;;;;1.92;1.82;;;;;;;;;;1861287;76;26727;-47
2022/01/29 14:01:58;;;;;;;2.87;2.67;;;;;;;;;;1869702;76;26281;-50
2022/01/29 14:04:32;;;;;;;4.22;3.60;;;;;;;;;;1863756;76;26345;-50
2022/01/29 14:06:56;;;;;;;5.67;4.60;;;;;;;;;;1871479;76;26281;-47
2022/01/29 14:09:29;;;;;;;5.55;4.78;;;;;;;;;;1867673;76;26268;-50
2022/01/29 14:12:06;;;;;;;7.25;5.33;;;;;;;;;;1871780;76;26296;-48
2022/01/29 14:14:48;;;;;;;8.13;6.33;;;;;;;;;;1859217;76;26361;-44
2022/01/29 14:17:17;;;;;;;7.83;6.15;;;;;;;;;;1861093;76;26294;-52
2022/01/29 14:19:46;;;;;;;8.95;6.97;;;;;;;;;;1876810;76;26852;-45
2022/01/29 14:22:13;;;;;;;9.48;6.92;;;;;;;;;;1870488;76;26725;-50
2022/01/29 14:24:42;;;;;;;11.55;7.60;;;;;;;;;;1864605;76;26297;-50
2022/01/29 14:27:09;;;;;;;10.72;7.75;;;;;;;;;;1865926;76;26902;-45
2022/01/29 14:29:38;;;;;;;10.40;7.35;;;;;;;;;;1869164;76;26367;-45
2022/01/29 14:32:05;;;;;;;9.90;7.67;;;;;;;;;;1873051;76;26343;-44
2022/01/29 14:34:33;;;;;;;10.40;7.17;;;;;;;;;;1864161;76;26303;-45
2022/01/29 14:37:00;;;;;;;10.18;7.28;;;;;;;;;;1865477;76;26261;-50
2022/01/29 14:39:28;;;;;;;11.78;7.75;;;;;;;;;;1858628;76;26316;-50
2022/01/29 14:41:56;;;;;;;9.45;7.15;;;;;;;;;;1867834;76;26272;-47
2022/01/29 14:44:24;;;;;;;9.03;6.85;;;;;;;;;;1873075;76;26724;-51
2022/01/29 14:46:51;;;;;;;9.85;7.33;;;;;;;;;;1869561;76;26282;-51
2022/01/29 14:49:20;;;;;;;9.03;6.80;;;;;;;;;;1874779;76;26725;-48
2022/01/29 14:51:48;;;;;;;8.70;6.72;;;;;;;;;;1871641;76;26964;-48
2022/01/29 14:54:16;;;;;;;8.23;6.30;;;;;;;;;;1869411;76;26788;-48
2022/01/29 14:56:44;;;;;;;8.40;6.15;;;;;;;;;;1872292;76;26295;-54
2022/01/29 14:59:12;;;;;;;8.20;6.33;;;;;;;;;;1866033;76;26673;-46
2022/01/29 15:01:40;;;;;;;6.83;5.78;;;;;;;;;;1865883;76;26381;-44
2022/01/29 15:04:08;;;;;;;6.80;5.42;;;;;;;;;;1867211;76;26738;-47